Time;durP1;ratioP1;P1;durP2;ratioP2;P2;SDS_P1;SDS_P2;PMS_P1;PMS_P2;Temp;Humidity;BMP_temperature;BMP_pressure;BME280_temperature;BME280_humidity;BME280_pressure;Samples;Min_cycle;Max_cycle;Signal;HPM_P1;HPM_P2
2021/03/03 05:11:11;;;;;;;1.40;1.40;;;2.70;99.90;;;;;;5623469;23;20711;-76
2021/03/03 05:13:38;;;;;;;1.33;1.33;;;2.70;99.90;;;;;;4995362;28;20622;-76
2021/03/03 05:16:05;;;;;;;1.27;1.27;;;2.70;99.90;;;;;;4995973;28;20235;-77
2021/03/03 05:18:32;;;;;;;1.30;1.30;;;2.60;99.90;;;;;;4996422;28;20577;-76
2021/03/03 05:20:59;;;;;;;1.40;1.40;;;2.60;99.90;;;;;;4996129;28;20286;-77
2021/03/03 05:23:28;;;;;;;1.20;1.20;;;2.70;99.90;;;;;;4995816;28;20627;-76
2021/03/03 05:25:55;;;;;;;1.30;1.30;;;2.70;99.90;;;;;;4997901;28;20203;-78
2021/03/03 05:28:23;;;;;;;1.37;1.37;;;2.60;99.90;;;;;;4998998;28;20199;-79
2021/03/03 05:30:50;;;;;;;1.20;1.20;;;2.60;99.90;;;;;;4998285;28;20220;-78
2021/03/03 05:33:27;;;;;;;1.30;1.30;;;2.60;99.90;;;;;;4997873;28;20208;-79
2021/03/03 05:35:55;;;;;;;1.43;1.43;;;2.60;99.90;;;;;;4989009;28;20669;-78
2021/03/03 05:38:22;;;;;;;1.60;1.60;;;2.70;99.90;;;;;;4984891;28;20209;-78
2021/03/03 05:40:51;;;;;;;1.60;1.60;;;2.70;99.90;;;;;;4993014;28;20224;-79
2021/03/03 05:43:18;;;;;;;1.30;1.30;;;2.60;99.90;;;;;;4997884;28;20255;-78
2021/03/03 05:45:47;;;;;;;1.30;1.30;;;2.60;99.90;;;;;;4986604;28;20208;-78
2021/03/03 05:48:19;;;;;;;1.70;1.70;;;2.50;99.90;;;;;;4979165;28;20208;-80
2021/03/03 05:50:52;;;;;;;1.33;1.33;;;2.50;99.90;;;;;;4979008;28;20229;-80
2021/03/03 05:53:20;;;;;;;1.60;1.60;;;2.50;99.90;;;;;;4977796;28;20253;-82
2021/03/03 05:55:49;;;;;;;1.17;1.17;;;2.60;99.90;;;;;;4979271;28;20580;-79
2021/03/03 05:58:17;;;;;;;1.33;1.33;;;2.60;99.90;;;;;;4980050;28;20215;-80
2021/03/03 06:00:49;;;;;;;1.30;1.30;;;2.60;99.90;;;;;;4979054;28;20228;-81
2021/03/03 06:03:16;;;;;;;1.30;1.30;;;2.70;99.90;;;;;;4979733;28;20554;-80
2021/03/03 06:05:47;;;;;;;1.30;1.30;;;2.80;99.90;;;;;;4982186;28;20661;-79
2021/03/03 06:08:15;;;;;;;1.20;1.20;;;2.80;99.90;;;;;;4990173;28;20533;-80
2021/03/03 06:10:42;;;;;;;1.50;1.50;;;2.80;99.90;;;;;;4981656;28;20240;-80
2021/03/03 06:13:10;;;;;;;1.40;1.40;;;2.90;99.90;;;;;;4994527;28;20204;-79
2021/03/03 06:15:37;;;;;;;1.40;1.40;;;2.90;99.90;;;;;;4996442;28;20204;-80
2021/03/03 06:18:07;;;;;;;1.30;1.30;;;2.90;99.90;;;;;;4995489;28;20215;-79
2021/03/03 06:20:38;;;;;;;1.37;1.37;;;2.80;99.90;;;;;;4995513;28;20243;-81
2021/03/03 06:23:19;;;;;;;1.40;1.40;;;2.90;99.90;;;;;;4998263;28;20568;-81
2021/03/03 06:25:48;;;;;;;1.33;1.33;;;2.90;99.90;;;;;;4999591;28;20208;-79
2021/03/03 06:28:33;;;;;;;1.30;1.30;;;3.00;99.90;;;;;;5001765;28;20204;-80
2021/03/03 06:31:02;;;;;;;1.30;1.30;;;3.00;99.90;;;;;;5000754;28;20227;-80
2021/03/03 06:33:30;;;;;;;1.40;1.40;;;3.10;99.90;;;;;;4999558;28;20211;-80
2021/03/03 06:35:57;;;;;;;1.30;1.30;;;3.10;99.90;;;;;;5000658;28;20638;-81
2021/03/03 06:38:28;;;;;;;1.40;1.40;;;3.00;99.90;;;;;;5000522;28;20204;-81
2021/03/03 06:40:57;;;;;;;1.50;1.50;;;3.10;99.90;;;;;;4998786;28;20251;-81
2021/03/03 06:43:28;;;;;;;1.40;1.40;;;3.20;99.90;;;;;;4998475;28;20287;-81
2021/03/03 06:45:57;;;;;;;1.30;1.30;;;3.20;99.90;;;;;;4998939;28;20208;-81
2021/03/03 06:48:38;;;;;;;1.30;1.30;;;3.30;99.90;;;;;;4998895;28;20295;-81
2021/03/03 06:51:26;;;;;;;1.40;1.40;;;3.40;99.90;;;;;;4998939;28;20219;-80
2021/03/03 06:53:55;;;;;;;1.40;1.40;;;3.30;99.90;;;;;;4999200;28;20254;-81
2021/03/03 06:56:33;;;;;;;1.30;1.30;;;3.40;99.90;;;;;;4998935;28;20215;-81
2021/03/03 06:59:11;;;;;;;1.30;1.30;;;3.40;99.90;;;;;;4998244;28;20199;-81
2021/03/03 07:01:38;;;;;;;1.20;1.20;;;3.50;99.90;;;;;;4997504;28;20291;-80
2021/03/03 07:04:18;;;;;;;1.30;1.30;;;4.20;99.90;;;;;;4997995;28;20208;-81
2021/03/03 07:06:45;;;;;;;1.33;1.33;;;3.60;99.90;;;;;;4997030;28;20257;-80
2021/03/03 07:09:13;;;;;;;1.40;1.40;;;;;;;;;;4996808;28;20656;-81
2021/03/03 07:11:40;;;;;;;1.30;1.30;;;3.70;99.90;;;;;;4997676;28;20232;-81
2021/03/03 07:14:16;;;;;;;1.33;1.33;;;3.70;99.90;;;;;;4998162;28;20263;-80
2021/03/03 07:17:07;;;;;;;1.40;1.40;;;3.70;99.90;;;;;;4998127;28;20232;-78
2021/03/03 07:19:36;;;;;;;1.20;1.20;;;3.80;99.90;;;;;;4998367;28;20203;-80
2021/03/03 07:22:05;;;;;;;1.20;1.20;;;3.70;99.90;;;;;;4997519;28;20278;-79
2021/03/03 07:24:33;;;;;;;1.53;1.53;;;3.70;99.90;;;;;;4997701;28;20620;-81
2021/03/03 07:27:02;;;;;;;1.47;1.47;;;3.80;99.90;;;;;;4998104;28;20259;-80
2021/03/03 07:29:30;;;;;;;1.30;1.30;;;3.70;99.90;;;;;;4997577;28;20263;-80
2021/03/03 07:31:58;;;;;;;1.20;1.20;;;;;;;;;;4997623;28;20643;-81
2021/03/03 07:34:25;;;;;;;1.40;1.40;;;4.20;99.90;;;;;;4998192;28;20207;-80
2021/03/03 07:36:54;;;;;;;1.30;1.30;;;4.00;99.90;;;;;;4997582;28;20196;-80
2021/03/03 07:39:25;;;;;;;1.40;1.40;;;4.20;99.90;;;;;;4997119;28;20239;-79
2021/03/03 07:41:56;;;;;;;1.20;1.20;;;4.30;99.90;;;;;;4997572;28;20234;-80
2021/03/03 07:44:23;;;;;;;1.30;1.30;;;4.50;99.90;;;;;;4997437;28;20255;-80
2021/03/03 07:46:51;;;;;;;1.30;1.30;;;4.50;99.90;;;;;;4998107;28;20250;-81
2021/03/03 07:49:24;;;;;;;1.20;1.20;;;4.50;99.90;;;;;;4997528;28;20691;-81
2021/03/03 07:51:51;;;;;;;1.50;1.50;;;4.60;99.90;;;;;;4997351;28;20239;-81
2021/03/03 07:54:19;;;;;;;1.30;1.30;;;4.60;99.90;;;;;;4997069;28;20207;-79
2021/03/03 07:56:46;;;;;;;1.33;1.33;;;;;;;;;;4997860;28;20207;-80
2021/03/03 07:59:14;;;;;;;1.40;1.40;;;4.70;99.90;;;;;;4997122;28;20208;-81
2021/03/03 08:01:41;;;;;;;1.20;1.20;;;4.70;99.90;;;;;;4996895;28;20755;-81
2021/03/03 08:04:08;;;;;;;1.30;1.30;;;4.70;99.90;;;;;;4997316;28;20215;-80
2021/03/03 08:06:37;;;;;;;1.20;1.20;;;4.70;99.90;;;;;;4997177;28;20236;-78
2021/03/03 08:09:20;;;;;;;1.30;1.30;;;4.80;99.90;;;;;;4997066;28;20200;-79
2021/03/03 08:12:03;;;;;;;1.30;1.30;;;4.90;99.90;;;;;;4997706;28;20232;-80
2021/03/03 08:14:35;;;;;;;1.23;1.23;;;4.90;99.90;;;;;;4997949;28;20231;-81
2021/03/03 08:17:04;;;;;;;1.20;1.20;;;4.90;99.90;;;;;;4997018;28;20204;-79
2021/03/03 08:20:00;;;;;;;1.20;1.20;;;5.00;99.90;;;;;;4997601;28;20739;-80
2021/03/03 08:22:50;;;;;;;1.20;1.20;;;5.10;99.90;;;;;;4996515;28;20231;-81
2021/03/03 08:25:44;;;;;;;1.40;1.40;;;5.10;99.90;;;;;;4996673;28;20199;-81
2021/03/03 08:28:25;;;;;;;1.10;1.10;;;5.20;99.90;;;;;;4996632;28;20258;-80
2021/03/03 08:31:30;;;;;;;1.20;1.20;;;5.30;99.90;;;;;;4996967;28;20259;-81
2021/03/03 08:34:04;;;;;;;1.20;1.20;;;5.50;99.90;;;;;;4996901;28;20215;-80
2021/03/03 08:37:03;;;;;;;1.23;1.23;;;5.70;99.90;;;;;;4997251;28;20208;-80
2021/03/03 08:39:36;;;;;;;1.07;1.07;;;5.70;99.90;;;;;;4996733;28;20207;-80
2021/03/03 08:42:28;;;;;;;1.10;1.10;;;5.80;99.90;;;;;;4996801;28;20349;-80
2021/03/03 08:45:00;;;;;;;1.10;1.10;;;5.90;99.90;;;;;;4996909;28;20211;-81
2021/03/03 08:48:00;;;;;;;1.13;1.13;;;6.00;99.90;;;;;;4998435;28;20243;-78
2021/03/03 08:50:37;;;;;;;1.20;1.20;;;5.90;99.90;;;;;;4999899;28;20208;-78
2021/03/03 08:53:33;;;;;;;1.17;1.17;;;6.20;99.90;;;;;;4998548;28;20207;-83
2021/03/03 08:56:34;;;;;;;1.20;1.20;;;6.30;99.90;;;;;;4994811;28;20206;-80
2021/03/03 08:59:03;;;;;;;1.10;1.10;;;6.40;99.90;;;;;;4995194;28;20290;-81
2021/03/03 09:02:01;;;;;;;1.40;1.40;;;6.40;99.90;;;;;;4994757;28;20298;-81
2021/03/03 09:04:30;;;;;;;1.30;1.30;;;6.40;99.90;;;;;;4995102;28;20291;-80
2021/03/03 09:06:58;;;;;;;1.20;1.20;;;6.50;99.90;;;;;;4994910;28;20573;-80
2021/03/03 09:09:26;;;;;;;1.07;1.07;;;6.80;99.90;;;;;;4995213;28;20625;-80
2021/03/03 09:12:04;;;;;;;1.17;1.17;;;6.80;99.90;;;;;;4994694;28;20648;-80
2021/03/03 09:14:33;;;;;;;1.30;1.30;;;6.90;99.90;;;;;;4995358;28;20681;-80
2021/03/03 09:17:02;;;;;;;1.10;1.10;;;7.10;99.90;;;;;;4995103;28;20672;-80
2021/03/03 09:19:30;;;;;;;1.00;1.00;;;7.20;99.90;;;;;;4994534;28;20204;-80
2021/03/03 09:21:58;;;;;;;1.00;1.00;;;7.40;99.90;;;;;;4995157;28;20359;-80
2021/03/03 09:24:25;;;;;;;1.00;1.00;;;7.40;99.90;;;;;;4995005;28;20208;-80
2021/03/03 09:27:05;;;;;;;1.20;1.20;;;7.50;99.90;;;;;;4995118;28;20200;-80
2021/03/03 09:29:35;;;;;;;1.00;1.00;;;7.60;99.90;;;;;;4994538;28;20270;-77
2021/03/03 09:32:08;;;;;;;1.20;1.20;;;7.50;99.90;;;;;;4994791;28;20224;-81
2021/03/03 09:34:42;;;;;;;1.00;1.00;;;7.50;99.90;;;;;;4995446;28;20203;-80
2021/03/03 09:37:09;;;;;;;1.00;1.00;;;7.70;99.90;;;;;;4994865;28;20204;-80
2021/03/03 09:39:36;;;;;;;1.00;1.00;;;7.80;99.90;;;;;;4994765;28;20212;-78
2021/03/03 09:42:05;;;;;;;1.10;1.10;;;7.90;99.90;;;;;;4995011;28;20315;-81
2021/03/03 09:44:51;;;;;;;1.10;1.10;;;8.00;99.90;;;;;;4995315;28;20238;-79
2021/03/03 09:47:27;;;;;;;1.10;1.10;;;8.10;99.90;;;;;;4994891;28;20208;-80
2021/03/03 09:49:59;;;;;;;0.80;0.80;;;8.20;99.90;;;;;;4994760;28;20215;-78
2021/03/03 09:52:34;;;;;;;1.10;1.10;;;8.40;99.90;;;;;;4994174;28;20461;-81
2021/03/03 09:55:01;;;;;;;1.00;1.00;;;8.40;99.90;;;;;;4994460;28;20208;-79
2021/03/03 09:57:29;;;;;;;1.00;1.00;;;8.60;99.90;;;;;;4994513;28;20657;-80
2021/03/03 09:59:57;;;;;;;1.10;1.10;;;8.60;99.90;;;;;;4997767;28;20200;-80
2021/03/03 10:02:25;;;;;;;1.00;1.00;;;8.60;99.90;;;;;;4997247;28;20747;-81
2021/03/03 10:04:53;;;;;;;1.10;1.10;;;8.70;99.90;;;;;;4997454;28;20701;-82
2021/03/03 10:07:23;;;;;;;1.00;1.00;;;8.90;99.90;;;;;;4997184;28;20856;-82
2021/03/03 10:09:53;;;;;;;1.00;1.00;;;9.00;99.90;;;;;;4993044;28;20196;-80
2021/03/03 10:12:21;;;;;;;0.95;0.95;;;9.20;99.90;;;;;;4997796;28;20227;-81
2021/03/03 10:15:00;;;;;;;0.90;0.90;;;9.20;99.90;;;;;;4997808;28;20207;-80
2021/03/03 10:17:33;;;;;;;1.00;1.00;;;9.20;99.90;;;;;;4997720;28;20759;-79
2021/03/03 10:20:01;;;;;;;1.00;1.00;;;9.30;99.90;;;;;;4994799;28;20204;-79
2021/03/03 10:22:28;;;;;;;0.85;0.85;;;9.40;99.90;;;;;;4978671;28;20324;-82
2021/03/03 10:24:57;;;;;;;0.90;0.90;;;9.40;99.90;;;;;;4979212;28;20205;-78
2021/03/03 10:27:24;;;;;;;0.90;0.90;;;9.60;99.90;;;;;;4978757;28;20247;-79
2021/03/03 10:29:51;;;;;;;1.00;1.00;;;9.70;99.90;;;;;;4978669;28;20686;-81
2021/03/03 10:32:20;;;;;;;0.90;0.90;;;9.90;99.90;;;;;;4978429;28;20587;-79
2021/03/03 10:34:47;;;;;;;1.00;1.00;;;9.80;99.90;;;;;;4979186;28;20200;-82
2021/03/03 10:37:25;;;;;;;0.90;0.90;;;10.00;99.90;;;;;;4980011;28;20200;-80
2021/03/03 10:39:53;;;;;;;0.80;0.80;;;10.20;99.90;;;;;;4979549;28;20208;-81
2021/03/03 10:42:24;;;;;;;0.90;0.90;;;10.30;99.90;;;;;;4979244;28;20644;-82
2021/03/03 10:44:53;;;;;;;0.80;0.80;;;10.40;99.90;;;;;;4979469;28;20682;-80
2021/03/03 10:47:40;;;;;;;0.80;0.80;;;10.50;99.90;;;;;;4979342;28;20200;-78
2021/03/03 10:50:28;;;;;;;0.85;0.85;;;11.00;99.90;;;;;;4979561;28;20250;-80
2021/03/03 10:52:57;;;;;;;0.90;0.90;;;10.80;99.30;;;;;;4978833;28;20252;-80
2021/03/03 10:55:26;;;;;;;0.90;0.90;;;11.00;98.60;;;;;;4978886;28;20204;-81
2021/03/03 10:58:08;;;;;;;0.85;0.85;;;11.00;98.10;;;;;;4979497;28;20231;-80
2021/03/03 11:00:55;;;;;;;0.90;0.90;;;11.10;98.00;;;;;;4979484;28;20220;-81
2021/03/03 11:03:24;;;;;;;0.88;0.88;;;11.30;98.30;;;;;;4979572;28;20224;-81
2021/03/03 11:05:53;;;;;;;0.80;0.80;;;11.30;98.00;;;;;;4984156;28;20604;-81
2021/03/03 11:08:20;;;;;;;0.80;0.80;;;11.30;97.60;;;;;;4983938;28;20204;-81
2021/03/03 11:10:48;;;;;;;0.70;0.70;;;11.40;97.50;;;;;;4986668;28;20228;-80
2021/03/03 11:13:15;;;;;;;0.70;0.70;;;11.50;97.40;;;;;;4989516;28;20243;-78
2021/03/03 11:15:44;;;;;;;0.80;0.80;;;11.60;96.60;;;;;;4989784;28;20232;-78
2021/03/03 11:18:13;;;;;;;0.70;0.70;;;11.70;96.70;;;;;;4987658;28;20275;-81
2021/03/03 11:20:40;;;;;;;0.80;0.80;;;11.80;96.10;;;;;;4984689;28;20256;-81
2021/03/03 11:23:07;;;;;;;0.90;0.90;;;11.80;95.20;;;;;;4988036;28;20228;-78
2021/03/03 11:25:34;;;;;;;0.90;0.90;;;11.80;94.80;;;;;;4987281;28;20275;-78
2021/03/03 11:28:02;;;;;;;0.80;0.80;;;11.70;95.30;;;;;;4976717;28;20209;-77
2021/03/03 11:30:29;;;;;;;0.80;0.80;;;11.80;95.20;;;;;;4975008;28;20627;-77
2021/03/03 11:32:56;;;;;;;0.70;0.70;;;12.10;95.00;;;;;;4975164;28;20522;-77
2021/03/03 11:35:23;;;;;;;0.80;0.80;;;12.20;94.50;;;;;;4975078;28;20208;-78
2021/03/03 11:37:51;;;;;;;0.70;0.70;;;12.20;94.00;;;;;;4975208;28;20720;-78
2021/03/03 11:40:18;;;;;;;0.70;0.70;;;12.50;99.90;;;;;;4974810;28;20621;-77
2021/03/03 11:42:45;;;;;;;0.70;0.70;;;12.40;93.30;;;;;;4974749;28;20224;-77
2021/03/03 11:45:13;;;;;;;0.70;0.70;;;12.60;93.40;;;;;;4975710;28;20223;-78
2021/03/03 11:47:44;;;;;;;0.80;0.80;;;12.60;92.30;;;;;;4975339;28;20212;-78
2021/03/03 11:50:12;;;;;;;0.70;0.70;;;12.30;99.90;;;;;;4975404;28;20216;-78
2021/03/03 11:52:39;;;;;;;0.80;0.80;;;12.30;92.50;;;;;;4976744;28;20200;-77
2021/03/03 11:55:08;;;;;;;0.75;0.75;;;12.20;92.60;;;;;;4978425;28;20211;-78
2021/03/03 11:57:36;;;;;;;0.70;0.70;;;12.30;92.70;;;;;;4975214;28;20209;-78
2021/03/03 12:00:06;;;;;;;0.80;0.80;;;11.80;92.30;;;;;;4974884;28;20208;-78
2021/03/03 12:02:33;;;;;;;0.80;0.80;;;12.40;92.70;;;;;;4977722;28;20753;-78
2021/03/03 12:05:00;;;;;;;0.70;0.70;;;12.40;93.00;;;;;;4981762;28;20272;-78
2021/03/03 12:07:28;;;;;;;0.80;0.80;;;12.40;92.70;;;;;;4981820;28;20208;-78
2021/03/03 12:09:54;;;;;;;0.70;0.70;;;12.40;92.70;;;;;;4984620;28;20208;-78
2021/03/03 12:12:22;;;;;;;0.70;0.70;;;12.60;99.90;;;;;;4988321;28;20390;-78
2021/03/03 12:14:49;;;;;;;0.60;0.60;;;12.50;93.00;;;;;;4986660;28;20227;-78
2021/03/03 12:17:16;;;;;;;0.75;0.75;;;;;;;;;;4987091;28;20205;-78
2021/03/03 12:19:44;;;;;;;0.70;0.70;;;12.80;92.10;;;;;;4986587;28;20259;-78
2021/03/03 12:22:10;;;;;;;0.80;0.80;;;12.80;92.20;;;;;;4986289;28;20228;-78
2021/03/03 12:24:37;;;;;;;0.60;0.60;;;12.90;92.30;;;;;;4987899;28;20656;-78
2021/03/03 12:27:05;;;;;;;0.60;0.60;;;12.90;92.60;;;;;;4987005;28;20207;-77
2021/03/03 12:29:32;;;;;;;0.80;0.80;;;13.00;91.60;;;;;;4984716;28;20208;-78
2021/03/03 12:32:00;;;;;;;0.80;0.80;;;13.00;91.30;;;;;;4982255;28;20296;-78
2021/03/03 12:34:27;;;;;;;0.77;0.77;;;12.90;91.40;;;;;;4977924;28;20209;-78
2021/03/03 12:36:54;;;;;;;0.60;0.60;;;13.10;91.30;;;;;;4979567;28;20211;-78
2021/03/03 12:39:20;;;;;;;0.70;0.70;;;13.10;90.90;;;;;;4981724;28;20204;-78
2021/03/03 12:41:47;;;;;;;0.80;0.80;;;13.20;90.80;;;;;;4983143;28;20221;-78
2021/03/03 12:44:14;;;;;;;0.70;0.70;;;13.30;90.80;;;;;;4980188;28;20670;-78
2021/03/03 12:46:42;;;;;;;0.73;0.73;;;13.40;90.90;;;;;;4977627;28;20232;-77
2021/03/03 12:49:09;;;;;;;0.70;0.70;;;13.40;90.80;;;;;;4976081;28;20200;-78
2021/03/03 12:51:36;;;;;;;0.60;0.60;;;13.50;90.40;;;;;;4975741;28;20225;-77
2021/03/03 12:54:03;;;;;;;0.70;0.70;;;13.60;90.40;;;;;;4978469;28;20673;-78
2021/03/03 12:56:30;;;;;;;0.60;0.60;;;13.50;90.10;;;;;;4983453;28;20201;-78
2021/03/03 12:58:57;;;;;;;0.60;0.60;;;13.40;90.50;;;;;;4983257;28;20689;-78
2021/03/03 13:01:24;;;;;;;0.70;0.70;;;13.30;91.20;;;;;;4974514;28;20283;-77
2021/03/03 13:03:52;;;;;;;0.70;0.70;;;13.40;91.20;;;;;;4974597;28;20287;-77
2021/03/03 13:06:19;;;;;;;0.70;0.70;;;13.50;91.20;;;;;;4979134;28;20204;-78
2021/03/03 13:08:47;;;;;;;0.70;0.70;;;13.60;91.20;;;;;;4988756;28;20678;-78
2021/03/03 13:11:14;;;;;;;0.70;0.70;;;13.60;91.30;;;;;;4985831;28;20232;-78
2021/03/03 13:13:40;;;;;;;0.70;0.70;;;13.50;91.00;;;;;;4978753;28;20197;-78
2021/03/03 13:16:07;;;;;;;0.60;0.60;;;13.50;90.90;;;;;;4974271;28;20259;-78
2021/03/03 13:18:34;;;;;;;0.70;0.70;;;13.50;91.20;;;;;;4973915;28;20666;-78
2021/03/03 13:21:02;;;;;;;0.70;0.70;;;13.50;91.10;;;;;;4973512;28;20233;-78
2021/03/03 13:23:29;;;;;;;0.68;0.68;;;13.60;91.20;;;;;;4973801;28;20232;-78
2021/03/03 13:25:56;;;;;;;0.70;0.70;;;13.70;90.90;;;;;;4973834;28;20251;-78
2021/03/03 13:28:23;;;;;;;0.60;0.60;;;13.80;91.20;;;;;;4974046;28;20674;-77
2021/03/03 13:30:50;;;;;;;0.60;0.60;;;13.90;90.90;;;;;;4974458;28;20229;-79
2021/03/03 13:33:19;;;;;;;0.70;0.70;;;13.90;90.50;;;;;;4975638;28;20291;-79
2021/03/03 13:35:46;;;;;;;0.70;0.70;;;14.00;91.30;;;;;;4977741;28;20215;-78
2021/03/03 13:38:14;;;;;;;0.50;0.50;;;14.10;90.70;;;;;;4978350;28;20228;-79
2021/03/03 13:40:43;;;;;;;0.70;0.70;;;14.20;92.20;;;;;;4977230;28;20647;-78
2021/03/03 13:43:11;;;;;;;0.70;0.70;;;14.10;92.30;;;;;;4977061;28;20312;-78
2021/03/03 13:45:39;;;;;;;0.60;0.60;;;14.20;92.40;;;;;;4977031;28;20723;-78
2021/03/03 13:48:09;;;;;;;0.50;0.50;;;14.30;90.20;;;;;;4977045;28;20296;-77
2021/03/03 13:50:36;;;;;;;0.60;0.60;;;14.40;92.60;;;;;;4977757;28;20224;-79
2021/03/03 13:53:03;;;;;;;0.50;0.50;;;14.40;88.90;;;;;;4980675;28;20666;-78
2021/03/03 13:55:31;;;;;;;0.65;0.65;;;14.30;88.80;;;;;;4979879;28;20240;-78
2021/03/03 13:57:59;;;;;;;0.60;0.60;;;14.30;88.90;;;;;;4979259;28;20252;-77
2021/03/03 14:00:30;;;;;;;0.50;0.50;;;14.30;99.90;;;;;;4977324;28;20205;-78
2021/03/03 14:02:59;;;;;;;0.70;0.70;;;14.20;89.90;;;;;;4978800;28;20221;-78
2021/03/03 14:05:26;;;;;;;0.52;0.52;;;14.00;90.00;;;;;;4978946;28;20577;-78
2021/03/03 14:07:53;;;;;;;0.65;0.65;;;13.90;89.80;;;;;;4978548;28;20220;-78
2021/03/03 14:10:26;;;;;;;0.70;0.70;;;13.90;99.90;;;;;;4979604;28;20200;-77
2021/03/03 14:12:54;;;;;;;0.60;0.60;;;13.90;90.00;;;;;;4980115;28;20204;-78
2021/03/03 14:15:21;;;;;;;0.52;0.52;;;13.90;90.10;;;;;;4979888;28;20208;-78
2021/03/03 14:17:48;;;;;;;0.65;0.65;;;14.00;90.00;;;;;;4980643;28;20535;-78
2021/03/03 14:20:16;;;;;;;0.50;0.50;;;13.50;99.90;;;;;;4981201;28;20201;-78
2021/03/03 14:22:43;;;;;;;0.70;0.70;;;13.60;90.50;;;;;;4980805;28;20225;-78
2021/03/03 14:25:10;;;;;;;0.70;0.70;;;13.30;91.00;;;;;;4980121;28;20204;-79
2021/03/03 14:27:38;;;;;;;0.70;0.70;;;;;;;;;;4978325;28;20204;-78
2021/03/03 14:30:06;;;;;;;0.70;0.70;;;13.00;90.70;;;;;;4980645;28;20202;-78
2021/03/03 14:32:35;;;;;;;0.70;0.70;;;12.80;91.50;;;;;;4980526;28;20295;-78
2021/03/03 14:35:03;;;;;;;0.65;0.65;;;12.70;91.60;;;;;;4977896;28;20207;-78
2021/03/03 14:37:30;;;;;;;0.70;0.70;;;12.60;91.90;;;;;;4977691;28;20208;-79
2021/03/03 14:39:57;;;;;;;0.60;0.60;;;12.60;91.80;;;;;;4977944;28;20201;-78
2021/03/03 14:42:24;;;;;;;0.60;0.60;;;12.50;92.00;;;;;;4977113;28;20660;-78
2021/03/03 14:44:51;;;;;;;0.80;0.80;;;12.40;91.80;;;;;;4977210;28;20433;-77
2021/03/03 14:47:19;;;;;;;0.70;0.70;;;12.30;91.60;;;;;;4975090;28;20240;-77
2021/03/03 14:49:46;;;;;;;0.70;0.70;;;12.10;91.90;;;;;;4975391;28;20588;-77
2021/03/03 14:52:13;;;;;;;0.70;0.70;;;11.90;92.20;;;;;;4974080;28;20225;-78
2021/03/03 14:54:40;;;;;;;0.63;0.63;;;11.90;92.30;;;;;;4975713;28;20201;-77
2021/03/03 14:57:07;;;;;;;0.70;0.70;;;11.80;92.60;;;;;;4975552;28;20669;-77
2021/03/03 14:59:39;;;;;;;0.70;0.70;;;11.80;92.90;;;;;;4976232;28;20283;-78
2021/03/03 15:02:07;;;;;;;0.70;0.70;;;11.70;92.70;;;;;;4976318;28;20279;-77
2021/03/03 15:04:39;;;;;;;0.70;0.70;;;11.60;92.50;;;;;;4977184;28;20685;-79
2021/03/03 15:07:08;;;;;;;0.80;0.80;;;11.60;92.90;;;;;;4977041;28;20673;-77
2021/03/03 15:09:35;;;;;;;0.70;0.70;;;11.60;92.80;;;;;;4980989;28;20205;-78
2021/03/03 15:12:03;;;;;;;0.70;0.70;;;11.30;99.90;;;;;;4995430;28;20243;-79
2021/03/03 15:14:30;;;;;;;0.80;0.80;;;11.20;99.90;;;;;;4997557;28;20227;-79
2021/03/03 15:16:57;;;;;;;0.80;0.80;;;11.20;99.90;;;;;;5008253;28;20227;-78
2021/03/03 15:19:24;;;;;;;0.80;0.80;;;11.10;99.90;;;;;;5010675;28;20208;-77
2021/03/03 15:21:52;;;;;;;1.00;1.00;;;11.10;99.90;;;;;;5010017;28;20279;-79
2021/03/03 15:24:19;;;;;;;0.80;0.80;;;11.10;99.90;;;;;;5006726;28;20291;-77
2021/03/03 15:26:46;;;;;;;0.70;0.70;;;11.60;99.90;;;;;;5005927;28;20235;-79
2021/03/03 15:29:12;;;;;;;0.90;0.90;;;11.20;99.90;;;;;;5005042;28;20208;-79
2021/03/03 15:31:40;;;;;;;0.70;0.70;;;11.30;99.90;;;;;;5005955;28;20235;-78
2021/03/03 15:34:07;;;;;;;0.80;0.80;;;11.50;99.90;;;;;;5007706;28;20204;-78
2021/03/03 15:36:34;;;;;;;0.80;0.80;;;11.40;99.90;;;;;;5008024;28;20238;-78
2021/03/03 15:39:02;;;;;;;0.80;0.80;;;11.30;99.90;;;;;;4997494;28;20291;-78
2021/03/03 15:41:29;;;;;;;0.90;0.90;;;;;;;;;;4997425;28;20286;-80
2021/03/03 15:43:57;;;;;;;0.70;0.70;;;;;;;;;;4998173;28;20614;-79
2021/03/03 15:46:24;;;;;;;0.80;0.80;;;11.10;97.80;;;;;;4986770;28;20239;-79
2021/03/03 15:48:51;;;;;;;0.80;0.80;;;;;;;;;;4982906;28;20196;-78
2021/03/03 15:51:18;;;;;;;0.80;0.80;;;10.70;99.90;;;;;;4990037;28;20220;-78
2021/03/03 15:53:45;;;;;;;0.77;0.77;;;10.60;99.90;;;;;;4986570;28;20612;-78
2021/03/03 15:56:13;;;;;;;0.80;0.80;;;10.50;99.90;;;;;;4985917;28;20200;-80
2021/03/03 15:58:40;;;;;;;0.80;0.80;;;10.40;99.90;;;;;;4983524;28;20200;-78
2021/03/03 16:01:07;;;;;;;0.70;0.70;;;10.10;99.90;;;;;;4984254;28;20247;-77
2021/03/03 16:03:34;;;;;;;0.85;0.85;;;10.30;99.90;;;;;;4988488;28;20227;-79
2021/03/03 16:06:02;;;;;;;0.90;0.90;;;10.10;99.90;;;;;;4984689;28;20197;-80
2021/03/03 16:08:29;;;;;;;0.80;0.80;;;9.80;99.90;;;;;;4985901;28;20204;-80
2021/03/03 16:10:56;;;;;;;0.80;0.80;;;9.60;99.90;;;;;;4993477;28;20224;-80
2021/03/03 16:13:24;;;;;;;1.00;1.00;;;9.40;99.90;;;;;;4993665;28;20544;-78
2021/03/03 16:15:51;;;;;;;0.85;0.85;;;9.50;99.90;;;;;;4994503;28;20200;-78
2021/03/03 16:18:18;;;;;;;0.80;0.80;;;;;;;;;;4995425;28;20214;-79
2021/03/03 16:20:46;;;;;;;0.90;0.90;;;;;;;;;;4992967;28;20223;-77
2021/03/03 16:23:13;;;;;;;0.80;0.80;;;9.30;99.90;;;;;;4993765;28;20324;-78
2021/03/03 16:25:40;;;;;;;0.90;0.90;;;9.20;99.90;;;;;;4988287;28;20203;-78
2021/03/03 16:28:07;;;;;;;0.90;0.90;;;;;;;;;;4984606;28;20352;-77
2021/03/03 16:30:35;;;;;;;0.80;0.80;;;9.40;99.90;;;;;;4980973;28;20225;-77
2021/03/03 16:33:03;;;;;;;0.80;0.80;;;9.10;99.90;;;;;;4977550;28;20204;-80
2021/03/03 16:35:31;;;;;;;0.88;0.88;;;;;;;;;;4978550;28;20196;-78
2021/03/03 16:37:58;;;;;;;0.80;0.80;;;9.20;99.90;;;;;;4987134;28;20204;-79
2021/03/03 16:40:26;;;;;;;0.70;0.70;;;9.70;99.90;;;;;;4983421;28;20612;-77
2021/03/03 16:43:03;;;;;;;0.90;0.90;;;9.30;96.80;;;;;;4981854;28;20216;-78
2021/03/03 16:45:31;;;;;;;0.90;0.90;;;;;;;;;;4980667;28;20207;-78
2021/03/03 16:47:59;;;;;;;0.80;0.80;;;9.10;99.90;;;;;;4983145;28;20205;-78
2021/03/03 16:50:28;;;;;;;0.80;0.80;;;9.00;99.90;;;;;;4982574;28;20196;-78
2021/03/03 16:52:56;;;;;;;1.02;1.02;;;8.90;99.90;;;;;;4995219;28;20287;-78
2021/03/03 16:55:23;;;;;;;0.90;0.90;;;8.80;99.90;;;;;;4994405;28;20270;-77
2021/03/03 16:57:50;;;;;;;0.88;0.88;;;8.80;99.90;;;;;;4994533;28;20259;-79
2021/03/03 17:00:18;;;;;;;1.00;1.00;;;8.50;98.40;;;;;;4995805;28;20610;-77
2021/03/03 17:02:49;;;;;;;1.02;1.02;;;8.20;99.90;;;;;;4995431;28;20261;-79
2021/03/03 17:05:18;;;;;;;0.90;0.90;;;8.20;99.20;;;;;;5002727;28;20203;-76
2021/03/03 17:07:45;;;;;;;1.30;1.30;;;8.00;99.90;;;;;;5001081;28;20402;-77
2021/03/03 17:10:14;;;;;;;0.90;0.90;;;7.90;99.90;;;;;;5013802;28;20203;-78
2021/03/03 17:12:42;;;;;;;1.00;1.00;;;7.90;99.80;;;;;;5015703;28;20313;-77
2021/03/03 17:15:10;;;;;;;0.80;0.80;;;7.90;99.90;;;;;;5015831;28;20214;-77
2021/03/03 17:17:38;;;;;;;1.00;1.00;;;7.80;99.90;;;;;;5015596;28;20203;-78
2021/03/03 17:20:07;;;;;;;0.90;0.90;;;7.80;99.90;;;;;;5015582;28;20578;-77
2021/03/03 17:22:37;;;;;;;0.90;0.90;;;7.70;99.90;;;;;;5015344;28;20589;-77
2021/03/03 17:25:05;;;;;;;1.10;1.10;;;7.70;99.90;;;;;;5010480;28;20212;-77
2021/03/03 17:27:32;;;;;;;1.00;1.00;;;7.40;99.90;;;;;;4991079;28;20287;-77
2021/03/03 17:29:59;;;;;;;0.90;0.90;;;7.50;99.90;;;;;;4996087;28;20215;-77
2021/03/03 17:32:26;;;;;;;1.07;1.07;;;7.30;99.90;;;;;;4995998;28;20646;-77
2021/03/03 17:34:54;;;;;;;1.10;1.10;;;;;;;;;;4995859;28;20688;-79
2021/03/03 17:37:21;;;;;;;1.00;1.00;;;7.40;99.90;;;;;;4995584;28;20255;-76
2021/03/03 17:39:50;;;;;;;1.00;1.00;;;7.40;99.90;;;;;;4994576;28;20676;-78
2021/03/03 17:42:18;;;;;;;1.10;1.10;;;7.30;99.90;;;;;;4989649;28;20271;-78
2021/03/03 17:44:45;;;;;;;1.00;1.00;;;7.30;99.90;;;;;;4995995;28;20634;-78
2021/03/03 17:47:13;;;;;;;0.80;0.80;;;;;;;;;;4996250;28;20200;-78
2021/03/03 17:49:40;;;;;;;1.10;1.10;;;;;;;;;;4995189;28;20199;-75
2021/03/03 17:52:08;;;;;;;1.10;1.10;;;7.00;99.90;;;;;;4995132;28;20787;-75
2021/03/03 17:54:36;;;;;;;1.00;1.00;;;6.80;99.90;;;;;;4995143;28;20659;-76
2021/03/03 17:57:05;;;;;;;1.10;1.10;;;6.70;99.90;;;;;;4995333;28;20579;-76
2021/03/03 17:59:33;;;;;;;1.10;1.10;;;;;;;;;;4994961;28;20274;-75
2021/03/03 18:02:00;;;;;;;1.20;1.20;;;;;;;;;;4994861;28;20227;-75
2021/03/03 18:04:27;;;;;;;0.90;0.90;;;6.70;99.90;;;;;;4994610;28;20224;-75
2021/03/03 18:06:54;;;;;;;1.20;1.20;;;6.60;99.90;;;;;;4995413;28;20204;-77
2021/03/03 18:09:21;;;;;;;1.20;1.20;;;6.50;99.90;;;;;;4995058;28;20616;-76
2021/03/03 18:11:49;;;;;;;1.20;1.20;;;6.40;99.90;;;;;;4994676;28;20318;-76
2021/03/03 18:14:16;;;;;;;1.33;1.33;;;6.50;99.90;;;;;;4993665;28;20204;-77
2021/03/03 18:16:43;;;;;;;1.20;1.20;;;6.40;99.90;;;;;;4994243;28;20207;-76
2021/03/03 18:19:11;;;;;;;1.23;1.23;;;6.50;99.90;;;;;;4994788;28;20669;-78
2021/03/03 18:21:39;;;;;;;1.10;1.10;;;6.40;99.90;;;;;;4995187;28;20230;-77